createdAt,value
2018-06-08T00:00:00.365Z,100135.98
2018-06-08T00:02:29.361Z,100140.44
2018-06-08T00:04:58.441Z,100142.27
2018-06-08T00:07:27.375Z,100140.59
2018-06-08T00:09:56.357Z,100150.96
2018-06-08T00:12:25.283Z,100149.66
2018-06-08T00:14:54.265Z,100146.78
2018-06-08T00:17:23.252Z,100150.56
2018-06-08T00:19:52.171Z,100148.27
2018-06-08T00:22:21.149Z,100150.47
2018-06-08T00:24:56.316Z,100154.09
2018-06-08T00:27:25.248Z,100152.48
2018-06-08T00:29:54.260Z,100148.70
2018-06-08T00:32:23.183Z,100146.14
2018-06-08T00:34:52.216Z,100146.73
2018-06-08T00:37:21.264Z,100153.44
2018-06-08T00:39:50.188Z,100150.31
2018-06-08T00:42:19.159Z,100145.86
2018-06-08T00:44:48.131Z,100142.11
2018-06-08T00:47:17.118Z,100149.37
2018-06-08T00:49:46.047Z,100149.37
2018-06-08T00:52:15.076Z,100149.06
2018-06-08T00:54:44.163Z,100147.70
2018-06-08T00:57:13.099Z,100144.67
2018-06-08T00:59:42.176Z,100142.17
2018-06-08T01:02:11.216Z,100142.07
2018-06-08T01:04:40.205Z,100147.35
2018-06-08T01:07:09.183Z,100146.42
2018-06-08T01:09:39.029Z,100147.47
2018-06-08T01:12:08.065Z,100133.39
2018-06-08T01:14:37.061Z,100149.67
2018-06-08T01:17:05.972Z,100153.69
2018-06-08T01:19:36.112Z,100150.03
2018-06-08T01:22:05.080Z,100148.47
2018-06-08T01:24:34.004Z,100147.05
2018-06-08T01:27:02.932Z,100143.92
2018-06-08T01:29:31.859Z,100146.16
2018-06-08T01:32:00.950Z,100147.62
2018-06-08T01:34:29.865Z,100145.34
2018-06-08T01:36:58.900Z,100145.80
2018-06-08T01:39:27.897Z,100150.19
2018-06-08T01:41:56.981Z,100153.82
2018-06-08T01:44:25.992Z,100146.61
2018-06-08T01:46:54.901Z,100142.53
2018-06-08T01:49:23.902Z,100146.13
2018-06-08T01:51:52.901Z,100145.08
2018-06-08T01:54:21.884Z,100147.38
2018-06-08T01:56:50.843Z,100141.94
2018-06-08T01:59:19.825Z,100152.19
2018-06-08T02:01:48.747Z,100151.25
2018-06-08T02:04:17.684Z,100149.58
2018-06-08T02:06:46.667Z,100156.83
2018-06-08T02:09:15.657Z,100148.36
2018-06-08T02:11:44.592Z,100152.86
2018-06-08T02:14:13.584Z,100152.34
2018-06-08T02:16:42.553Z,100142.72
2018-06-08T02:19:11.705Z,100145.33
2018-06-08T02:21:40.688Z,100150.24
2018-06-08T02:24:09.627Z,100155.67
2018-06-08T02:26:38.600Z,100155.89
2018-06-08T02:29:07.600Z,100160.39
2018-06-08T02:31:36.641Z,100160.53
2018-06-08T02:34:05.640Z,100162.48
2018-06-08T02:36:34.547Z,100158.92
2018-06-08T02:39:03.534Z,100163.31
2018-06-08T02:41:32.472Z,100164.98
2018-06-08T02:44:01.440Z,100164.36
2018-06-08T02:46:30.408Z,100166.10
2018-06-08T02:48:59.324Z,100166.52
2018-06-08T02:51:28.725Z,100170.17
2018-06-08T02:53:57.657Z,100179.37
2018-06-08T02:56:26.592Z,100171.53
2018-06-08T02:58:55.563Z,100176.52
2018-06-08T03:01:24.602Z,100177.67
2018-06-08T03:03:53.589Z,100183.52
2018-06-08T03:06:22.636Z,100182.37
2018-06-08T03:08:51.556Z,100181.52
2018-06-08T03:11:20.541Z,100179.69
2018-06-08T03:13:49.472Z,100185.56
2018-06-08T03:16:18.404Z,100187.28
2018-06-08T03:18:47.331Z,100181.58
2018-06-08T03:21:16.336Z,100188.52
2018-06-08T03:23:45.384Z,100180.17
2018-06-08T03:26:14.305Z,100180.42
2018-06-08T03:28:43.218Z,100182.52
2018-06-08T03:31:12.224Z,100184.84
2018-06-08T03:33:41.160Z,100190.92
2018-06-08T03:36:10.320Z,100181.36
2018-06-08T03:38:39.316Z,100179.76
2018-06-08T03:41:08.309Z,100184.77
2018-06-08T03:43:37.309Z,100190.23
2018-06-08T03:46:06.340Z,100191.30
2018-06-08T03:48:35.372Z,100192.73
2018-06-08T03:51:04.316Z,100193.67
2018-06-08T03:53:33.367Z,100194.45
2018-06-08T03:56:02.388Z,100186.41
2018-06-08T03:58:31.331Z,100191.47
2018-06-08T04:01:00.401Z,100184.37
2018-06-08T04:03:30.420Z,100184.55
2018-06-08T04:05:59.418Z,100175.30
2018-06-08T04:08:28.461Z,100177.17
2018-06-08T04:10:57.476Z,100186.52
2018-06-08T04:13:26.544Z,100190.06
2018-06-08T04:15:55.504Z,100190.20
2018-06-08T04:18:24.572Z,100195.22
2018-06-08T04:20:53.586Z,100197.13
2018-06-08T04:23:22.604Z,100196.37
2018-06-08T04:25:51.741Z,100194.13
2018-06-08T04:28:20.677Z,100187.78
2018-06-08T04:30:49.674Z,100191.56
2018-06-08T04:33:18.680Z,100188.24
2018-06-08T04:35:47.754Z,100185.20
2018-06-08T04:38:16.870Z,100183.98
2018-06-08T04:40:45.845Z,100183.17
2018-06-08T04:43:14.841Z,100187.61
2018-06-08T04:45:43.779Z,100180.02
2018-06-08T04:48:12.735Z,100182.97
2018-06-08T04:50:41.712Z,100183.09
2018-06-08T04:53:10.648Z,100193.26
2018-06-08T04:55:39.633Z,100181.50
2018-06-08T04:58:08.711Z,100183.56
2018-06-08T05:00:37.712Z,100186.30
2018-06-08T05:03:06.708Z,100178.52
2018-06-08T05:05:35.693Z,100178.19
2018-06-08T05:08:04.701Z,100177.55
2018-06-08T05:10:33.708Z,100177.63
2018-06-08T05:13:02.651Z,100180.59
2018-06-08T05:15:31.700Z,100177.31
2018-06-08T05:18:00.737Z,100190.64
2018-06-08T05:20:29.741Z,100181.44
2018-06-08T05:22:58.688Z,100185.28
2018-06-08T05:25:27.619Z,100188.53
2018-06-08T05:27:56.785Z,100186.68
2018-06-08T05:30:27.100Z,100193.83
2018-06-08T05:32:56.036Z,100197.69
2018-06-08T05:35:25.062Z,100202.55
2018-06-08T05:37:54.076Z,100192.87
2018-06-08T05:40:23.185Z,100202.08
2018-06-08T05:42:52.307Z,100202.09
2018-06-08T05:45:21.465Z,100202.09
2018-06-08T05:47:50.427Z,100198.77
2018-06-08T05:50:19.360Z,100194.76
2018-06-08T05:52:48.420Z,100193.13
2018-06-08T05:55:17.404Z,100193.48
2018-06-08T05:57:46.348Z,100185.39
2018-06-08T06:00:15.398Z,100181.22
2018-06-08T06:02:44.415Z,100187.16
2018-06-08T06:05:13.419Z,100179.59
2018-06-08T06:07:42.562Z,100182.45
2018-06-08T06:10:11.504Z,100180.63
2018-06-08T06:12:40.474Z,100179.67
2018-06-08T06:15:09.514Z,100182.56
2018-06-08T06:17:38.683Z,100183.53
2018-06-08T06:20:08.499Z,100180.80
2018-06-08T06:22:37.427Z,100174.69
2018-06-08T06:25:06.784Z,100175.59
2018-06-08T06:27:35.800Z,100181.07
2018-06-08T06:30:05.605Z,100181.74
2018-06-08T06:32:34.606Z,100189.03
2018-06-08T06:35:03.680Z,100189.27
2018-06-08T06:37:32.628Z,100182.69
2018-06-08T06:40:01.916Z,100192.07
2018-06-08T06:42:31.328Z,100187.03
2018-06-08T06:45:00.677Z,100189.41
2018-06-08T06:47:30.048Z,100192.05
2018-06-08T06:49:59.394Z,100188.63
2018-06-08T06:52:28.789Z,100185.87
2018-06-08T06:54:58.265Z,100184.23
2018-06-08T06:57:27.660Z,100187.84
2018-06-08T06:59:57.033Z,100189.47
2018-06-08T07:02:26.430Z,100188.80
2018-06-08T07:04:55.814Z,100193.77
2018-06-08T07:07:25.247Z,100186.45
2018-06-08T07:09:54.634Z,100188.23
2018-06-08T07:12:24.014Z,100182.43
2018-06-08T07:14:53.413Z,100183.41
2018-06-08T07:17:22.408Z,100182.27
2018-06-08T07:19:51.507Z,100177.31
2018-06-08T07:22:21.686Z,100180.14
2018-06-08T07:24:50.659Z,100171.34
2018-06-08T07:27:19.685Z,100168.53
2018-06-08T07:29:48.635Z,100181.17
2018-06-08T07:32:17.644Z,100176.95
2018-06-08T07:34:46.769Z,100172.98
2018-06-08T07:37:15.729Z,100169.30
2018-06-08T07:39:44.703Z,100165.09
2018-06-08T07:42:13.740Z,100172.11
2018-06-08T07:44:42.816Z,100168.05
2018-06-08T07:47:11.826Z,100158.55
2018-06-08T07:49:40.834Z,100158.83
2018-06-08T07:52:09.798Z,100163.50
2018-06-08T07:54:38.808Z,100161.54
2018-06-08T07:57:07.875Z,100156.66
2018-06-08T07:59:36.819Z,100157.06
2018-06-08T08:02:05.810Z,100151.23
2018-06-08T08:04:34.864Z,100146.09
2018-06-08T08:07:03.815Z,100152.50
2018-06-08T08:09:32.811Z,100153.41
2018-06-08T08:12:01.753Z,100154.64
2018-06-08T08:14:30.748Z,100155.98
2018-06-08T08:16:59.696Z,100158.48
2018-06-08T08:19:28.737Z,100149.00
2018-06-08T08:21:57.790Z,100145.23
2018-06-08T08:24:26.727Z,100145.86
2018-06-08T08:26:55.769Z,100141.13
2018-06-08T08:29:24.743Z,100142.83
2018-06-08T08:31:53.674Z,100142.57
2018-06-08T08:34:22.644Z,100134.13
2018-06-08T08:36:51.684Z,100144.23
2018-06-08T08:39:20.649Z,100139.39
2018-06-08T08:41:49.645Z,100145.95
2018-06-08T08:44:18.584Z,100146.29
2018-06-08T08:46:47.582Z,100138.43
2018-06-08T08:49:16.578Z,100136.22
2018-06-08T08:51:45.539Z,100140.27
2018-06-08T08:54:14.497Z,100136.91
2018-06-08T08:56:43.545Z,100134.05
2018-06-08T08:59:12.657Z,100133.67
2018-06-08T09:01:41.596Z,100125.44
2018-06-08T09:04:10.586Z,100123.32
2018-06-08T09:06:39.543Z,100117.27
2018-06-08T09:09:08.656Z,100126.27
2018-06-08T09:11:37.697Z,100107.61
2018-06-08T09:14:06.865Z,100113.22
2018-06-08T09:16:35.792Z,100117.39
2018-06-08T09:19:04.764Z,100107.17
2018-06-08T09:21:33.749Z,100097.48
2018-06-08T09:24:02.904Z,100102.67
2018-06-08T09:26:31.892Z,100097.99
2018-06-08T09:29:00.916Z,100096.20
2018-06-08T09:31:29.920Z,100095.09
2018-06-08T09:33:58.867Z,100089.80
2018-06-08T09:36:27.932Z,100087.57
2018-06-08T09:38:56.866Z,100093.41
2018-06-08T09:41:25.904Z,100095.85
2018-06-08T09:43:54.844Z,100085.09
2018-06-08T09:46:23.807Z,100083.84
2018-06-08T09:48:52.799Z,100081.62
2018-06-08T09:51:21.788Z,100081.92
2018-06-08T09:53:50.836Z,100087.86
2018-06-08T09:56:19.799Z,100079.72
2018-06-08T09:58:48.731Z,100081.00
2018-06-08T10:01:17.711Z,100072.40
2018-06-08T10:03:46.720Z,100074.23
2018-06-08T10:06:15.713Z,100074.52
2018-06-08T10:08:44.643Z,100075.88
2018-06-08T10:11:13.637Z,100074.03
2018-06-08T10:13:42.725Z,100068.71
2018-06-08T10:16:11.716Z,100063.64
2018-06-08T10:18:40.808Z,100069.28
2018-06-08T10:21:09.929Z,100071.36
2018-06-08T10:23:38.940Z,100069.23
2018-06-08T10:26:07.974Z,100068.53
2018-06-08T10:28:36.965Z,100064.48
2018-06-08T10:31:05.892Z,100060.97
2018-06-08T10:33:34.884Z,100054.32
2018-06-08T10:36:03.821Z,100056.53
2018-06-08T10:38:32.838Z,100049.17
2018-06-08T10:41:01.830Z,100045.25
2018-06-08T10:43:30.817Z,100045.67
2018-06-08T10:45:59.857Z,100039.45
2018-06-08T10:48:28.793Z,100041.39
2018-06-08T10:50:57.803Z,100034.55
2018-06-08T10:53:26.739Z,100034.38
2018-06-08T10:55:55.789Z,100023.37
2018-06-08T10:58:24.832Z,100017.68
2018-06-08T11:00:53.873Z,100012.47
2018-06-08T11:03:22.876Z,100009.76
2018-06-08T11:05:51.880Z,100005.66
2018-06-08T11:08:20.953Z,100001.84
2018-06-08T11:10:49.956Z,100003.03
2018-06-08T11:13:18.935Z,100003.56
2018-06-08T11:15:47.960Z,100001.77
2018-06-08T11:18:16.892Z,99998.55
2018-06-08T11:20:45.996Z,100003.50
2018-06-08T11:23:15.048Z,99999.56
2018-06-08T11:25:43.976Z,99994.44
2018-06-08T11:28:12.911Z,99997.66
2018-06-08T11:30:41.912Z,99985.11
2018-06-08T11:33:11.053Z,99993.34
2018-06-08T11:35:39.992Z,99985.78
2018-06-08T11:38:08.980Z,99984.39
2018-06-08T11:40:38.021Z,99994.37
2018-06-08T11:43:07.010Z,99981.56
2018-06-08T11:45:35.995Z,99980.09
2018-06-08T11:48:05.007Z,99980.39
2018-06-08T11:50:33.951Z,99980.42
2018-06-08T11:53:02.889Z,99974.44
2018-06-08T11:55:31.891Z,99978.24
2018-06-08T11:58:00.968Z,99969.67
2018-06-08T12:00:29.920Z,99966.02
2018-06-08T12:02:58.893Z,99960.70
2018-06-08T12:05:27.903Z,99961.60
2018-06-08T12:07:56.848Z,99956.87
2018-06-08T12:10:25.901Z,99948.58
2018-06-08T12:12:54.950Z,99947.66
2018-06-08T12:15:23.944Z,99945.26
2018-06-08T12:17:52.901Z,99942.03
2018-06-08T12:20:21.839Z,99939.30
2018-06-08T12:22:50.937Z,99931.80
2018-06-08T12:25:19.936Z,99930.19
2018-06-08T12:27:48.895Z,99929.47
2018-06-08T12:30:17.912Z,99930.25
2018-06-08T12:32:46.888Z,99927.56
2018-06-08T12:35:15.884Z,99919.88
2018-06-08T12:37:44.835Z,99923.45
2018-06-08T12:40:13.856Z,99921.23
2018-06-08T12:42:42.860Z,99914.98
2018-06-08T12:45:11.872Z,99909.33
2018-06-08T12:47:40.938Z,99904.72
2018-06-08T12:50:09.951Z,99907.09
2018-06-08T12:52:38.948Z,99900.89
2018-06-08T12:55:07.962Z,99899.27
2018-06-08T12:57:37.044Z,99892.97
2018-06-08T13:00:06.337Z,99889.31
2018-06-08T13:02:35.279Z,99894.47
2018-06-08T13:05:04.265Z,99886.20
2018-06-08T13:07:33.299Z,99884.78
2018-06-08T13:10:02.306Z,99884.50
2018-06-08T13:12:31.389Z,99879.72
2018-06-08T13:15:00.336Z,99868.77
2018-06-08T13:17:29.349Z,99864.44
2018-06-08T13:19:58.356Z,99861.58
2018-06-08T13:22:27.401Z,99862.00
2018-06-08T13:24:56.511Z,99857.56
2018-06-08T13:27:25.525Z,99851.56
2018-06-08T13:29:54.528Z,99852.05
2018-06-08T13:32:23.557Z,99856.52
2018-06-08T13:34:52.504Z,99844.59
2018-06-08T13:37:21.561Z,99847.65
2018-06-08T13:39:50.570Z,99840.37
2018-06-08T13:42:19.541Z,99830.04
2018-06-08T13:44:48.533Z,99832.36
2018-06-08T13:47:17.545Z,99835.34
2018-06-08T13:49:46.624Z,99829.22
2018-06-08T13:52:15.633Z,99831.20
2018-06-08T13:54:44.592Z,99819.55
2018-06-08T13:57:13.536Z,99819.63
2018-06-08T13:59:42.473Z,99812.88
2018-06-08T14:02:11.515Z,99806.70
2018-06-08T14:04:40.565Z,99809.03
2018-06-08T14:07:09.570Z,99802.59
2018-06-08T14:09:38.536Z,99799.66
2018-06-08T14:12:07.497Z,99800.34
2018-06-08T14:14:36.602Z,99790.18
2018-06-08T14:17:05.872Z,99787.31
2018-06-08T14:19:34.856Z,99787.09
2018-06-08T14:22:03.808Z,99781.06
2018-06-08T14:24:32.752Z,99773.06
2018-06-08T14:27:01.801Z,99773.88
2018-06-08T14:29:30.857Z,99768.75
2018-06-08T14:31:59.797Z,99767.97
2018-06-08T14:34:28.748Z,99766.50
2018-06-08T14:36:57.688Z,99765.19
2018-06-08T14:39:26.696Z,99760.87
2018-06-08T14:41:55.702Z,99760.21
2018-06-08T14:44:24.772Z,99751.38
2018-06-08T14:46:53.751Z,99746.39
2018-06-08T14:49:22.749Z,99740.67
2018-06-08T14:51:51.795Z,99742.08
2018-06-08T14:54:20.864Z,99742.42
2018-06-08T14:56:49.800Z,99744.94
2018-06-08T14:59:18.759Z,99740.26
2018-06-08T15:01:47.765Z,99738.70
2018-06-08T15:04:16.828Z,99737.66
2018-06-08T15:06:45.784Z,99729.63
2018-06-08T15:09:14.742Z,99727.91
2018-06-08T15:11:43.761Z,99724.70
2018-06-08T15:14:12.786Z,99725.52
2018-06-08T15:16:41.789Z,99723.93
2018-06-08T15:19:10.731Z,99715.03
2018-06-08T15:21:39.773Z,99713.83
2018-06-08T15:24:08.721Z,99711.87
2018-06-08T15:26:37.709Z,99706.80
2018-06-08T15:29:06.765Z,99703.81
2018-06-08T15:31:35.708Z,99703.52
2018-06-08T15:34:04.704Z,99707.82
2018-06-08T15:36:33.705Z,99704.41
2018-06-08T15:39:02.765Z,99708.45
2018-06-08T15:41:31.792Z,99705.88
2018-06-08T15:44:00.790Z,99706.89
2018-06-08T15:46:29.789Z,99708.28
2018-06-08T15:48:58.801Z,99713.19
2018-06-08T15:51:27.812Z,99701.63
2018-06-08T15:53:56.875Z,99700.23
2018-06-08T15:56:25.888Z,99706.97
2018-06-08T15:58:54.868Z,99708.36
2018-06-08T16:01:23.869Z,99705.61
2018-06-08T16:03:52.849Z,99710.22
2018-06-08T16:06:21.908Z,99708.98
2018-06-08T16:08:50.888Z,99725.47
2018-06-08T16:11:19.833Z,99725.74
2018-06-08T16:13:48.837Z,99721.11
2018-06-08T16:16:17.768Z,99719.55
2018-06-08T16:18:46.719Z,99718.67
2018-06-08T16:21:15.725Z,99719.95
2018-06-08T16:23:44.688Z,99720.46
2018-06-08T16:26:13.678Z,99718.45
2018-06-08T16:28:42.628Z,99713.26
2018-06-08T16:31:11.637Z,99721.14
2018-06-08T16:33:40.568Z,99721.08
2018-06-08T16:36:09.651Z,99724.12
2018-06-08T16:38:38.620Z,99723.34
2018-06-08T16:41:07.681Z,99720.41
2018-06-08T16:43:36.693Z,99720.82
2018-06-08T16:46:05.710Z,99722.15
2018-06-08T16:48:34.721Z,99721.96
2018-06-08T16:51:03.872Z,99726.07
2018-06-08T16:53:32.832Z,99733.75
2018-06-08T16:56:01.852Z,99721.23
2018-06-08T16:58:30.807Z,99728.52
2018-06-08T17:00:59.826Z,99733.77
2018-06-08T17:03:28.911Z,99725.23
2018-06-08T17:05:57.936Z,99727.98
2018-06-08T17:08:27.092Z,99729.95
2018-06-08T17:10:56.073Z,99728.79
2018-06-08T17:13:25.072Z,99728.53
2018-06-08T17:15:54.134Z,99726.53
2018-06-08T17:18:23.085Z,99727.34
2018-06-08T17:20:52.141Z,99728.39
2018-06-08T17:23:21.157Z,99719.88
2018-06-08T17:25:50.201Z,99723.62
2018-06-08T17:28:19.266Z,99731.55
2018-06-08T17:30:48.232Z,99737.52
2018-06-08T17:33:17.244Z,99733.82
2018-06-08T17:35:46.246Z,99737.19
2018-06-08T17:38:15.266Z,99737.88
2018-06-08T17:40:44.221Z,99744.06
2018-06-08T17:43:13.178Z,99743.89
2018-06-08T17:45:42.362Z,99739.28
2018-06-08T17:48:11.381Z,99731.92
2018-06-08T17:50:40.453Z,99736.45
2018-06-08T17:53:09.581Z,99738.96
2018-06-08T17:55:38.617Z,99737.17
2018-06-08T17:58:07.621Z,99733.11
2018-06-08T18:00:36.657Z,99737.86
2018-06-08T18:03:05.718Z,99736.75
2018-06-08T18:05:34.664Z,99737.37
2018-06-08T18:08:03.653Z,99744.36
2018-06-08T18:10:32.753Z,99740.83
2018-06-08T18:13:02.025Z,99742.22
2018-06-08T18:15:30.985Z,99742.56
2018-06-08T18:17:59.997Z,99744.58
2018-06-08T18:20:28.963Z,99752.07
2018-06-08T18:22:57.985Z,99757.87
2018-06-08T18:25:27.131Z,99753.80
2018-06-08T18:27:56.116Z,99756.56
2018-06-08T18:30:25.097Z,99761.02
2018-06-08T18:32:54.057Z,99764.90
2018-06-08T18:35:23.012Z,99763.02
2018-06-08T18:37:51.998Z,99766.34
2018-06-08T18:40:21.008Z,99764.44
2018-06-08T18:42:50.014Z,99764.14
2018-06-08T18:45:18.992Z,99768.05
2018-06-08T18:47:47.966Z,99762.58
2018-06-08T18:50:16.966Z,99759.83
2018-06-08T18:52:45.918Z,99757.94
2018-06-08T18:55:14.905Z,99761.52
2018-06-08T18:57:43.961Z,99756.32
2018-06-08T19:00:12.931Z,99756.59
2018-06-08T19:02:41.986Z,99756.87
2018-06-08T19:05:11.093Z,99750.84
2018-06-08T19:07:40.120Z,99757.19
2018-06-08T19:10:09.121Z,99758.59
2018-06-08T19:12:38.159Z,99749.75
2018-06-08T19:15:07.274Z,99744.81
2018-06-08T19:17:36.302Z,99742.89
2018-06-08T19:20:05.346Z,99736.86
2018-06-08T19:22:34.376Z,99731.63
2018-06-08T19:25:03.408Z,99732.17
2018-06-08T19:27:32.470Z,99723.66
2018-06-08T19:30:01.500Z,99725.86
2018-06-08T19:32:30.485Z,99725.06
2018-06-08T19:34:59.585Z,99716.27
2018-06-08T19:37:28.662Z,99711.87
2018-06-08T19:39:57.652Z,99708.03
2018-06-08T19:42:26.677Z,99700.88
2018-06-08T19:44:55.660Z,99699.79
2018-06-08T19:47:24.706Z,99697.03
2018-06-08T19:49:53.691Z,99692.64
2018-06-08T19:52:22.789Z,99690.42
2018-06-08T19:54:51.756Z,99692.60
2018-06-08T19:57:20.857Z,99685.20
2018-06-08T19:59:49.824Z,99686.84
2018-06-08T20:02:18.772Z,99684.37
2018-06-08T20:04:47.897Z,99686.02
2018-06-08T20:07:16.929Z,99685.74
2018-06-08T20:09:45.953Z,99682.43
2018-06-08T20:12:14.978Z,99680.52
2018-06-08T20:14:44.001Z,99678.88
2018-06-08T20:17:13.038Z,99676.41
2018-06-08T20:19:42.117Z,99671.70
2018-06-08T20:22:11.116Z,99675.28
2018-06-08T20:24:40.146Z,99673.63
2018-06-08T20:27:09.108Z,99673.89
2018-06-08T20:29:38.132Z,99672.24
2018-06-08T20:32:07.137Z,99673.34
2018-06-08T20:34:36.158Z,99665.03
2018-06-08T20:37:05.194Z,99657.36
2018-06-08T20:39:34.275Z,99653.48
2018-06-08T20:42:03.277Z,99652.66
2018-06-08T20:44:32.289Z,99650.20
2018-06-08T20:47:01.384Z,99649.09
2018-06-08T20:49:30.479Z,99652.38
2018-06-08T20:51:59.493Z,99657.30
2018-06-08T20:54:28.504Z,99657.30
2018-06-08T20:57:30.537Z,99660.05
2018-06-08T20:59:59.492Z,99655.38
2018-06-08T21:02:28.515Z,99654.00
2018-06-08T21:04:57.618Z,99652.88
2018-06-08T21:07:26.650Z,99655.05
2018-06-08T21:09:55.616Z,99660.55
2018-06-08T21:12:24.688Z,99648.17
2018-06-08T21:14:53.767Z,99650.62
2018-06-08T21:17:22.791Z,99656.10
2018-06-08T21:19:51.816Z,99655.53
2018-06-08T21:22:20.824Z,99656.06
2018-06-08T21:24:49.941Z,99655.22
2018-06-08T21:27:19.076Z,99658.77
2018-06-08T21:29:48.093Z,99661.53
2018-06-08T21:32:17.158Z,99662.08
2018-06-08T21:34:46.115Z,99653.00
2018-06-08T21:37:15.077Z,99656.59
2018-06-08T21:39:44.149Z,99659.58
2018-06-08T21:42:13.183Z,99654.89
2018-06-08T21:44:42.202Z,99657.08
2018-06-08T21:47:11.293Z,99660.33
2018-06-08T21:49:40.333Z,99663.59
2018-06-08T21:52:09.341Z,99663.06
2018-06-08T21:54:38.368Z,99657.01
2018-06-08T21:57:07.429Z,99653.97
2018-06-08T21:59:36.395Z,99643.23
2018-06-08T22:02:05.741Z,99643.48
2018-06-08T22:04:34.886Z,99637.69
2018-06-08T22:07:03.875Z,99634.92
2018-06-08T22:09:33.041Z,99633.80
2018-06-08T22:12:02.020Z,99627.24
2018-06-08T22:14:30.970Z,99624.78
2018-06-08T22:16:59.972Z,99619.83
2018-06-08T22:19:29.028Z,99609.47
2018-06-08T22:21:57.987Z,99610.31
2018-06-08T22:24:27.043Z,99607.56
2018-06-08T22:26:55.992Z,99610.83
2018-06-08T22:29:25.005Z,99605.34
2018-06-08T22:31:54.004Z,99602.61
2018-06-08T22:34:23.009Z,99600.13
2018-06-08T22:36:51.975Z,99597.12
2018-06-08T22:39:20.986Z,99598.20
2018-06-08T22:41:50.009Z,99590.81
2018-06-08T22:44:18.963Z,99597.63
2018-06-08T22:46:48.017Z,99597.05
2018-06-08T22:49:17.164Z,99599.73
2018-06-08T22:51:46.127Z,99593.98
2018-06-08T22:54:15.098Z,99585.39
2018-06-08T22:56:44.361Z,99581.52
2018-06-08T22:59:13.453Z,99583.12
2018-06-08T23:01:42.454Z,99585.30
2018-06-08T23:04:11.482Z,99580.85
2018-06-08T23:06:40.544Z,99583.25
2018-06-08T23:09:09.675Z,99575.52
2018-06-08T23:11:38.644Z,99582.92
2018-06-08T23:14:07.702Z,99583.17
2018-06-08T23:16:36.715Z,99583.72
2018-06-08T23:19:05.789Z,99580.35
2018-06-08T23:21:34.821Z,99582.27
2018-06-08T23:24:03.885Z,99576.47
2018-06-08T23:26:33.056Z,99577.81
2018-06-08T23:29:02.073Z,99567.91
2018-06-08T23:31:31.145Z,99570.33
2018-06-08T23:34:00.357Z,99569.47
2018-06-08T23:36:29.384Z,99568.33
2018-06-08T23:38:58.429Z,99565.34
2018-06-08T23:41:27.424Z,99564.80
2018-06-08T23:43:56.473Z,99558.52
2018-06-08T23:46:25.506Z,99551.39
2018-06-08T23:48:54.526Z,99553.27
2018-06-08T23:51:23.520Z,99540.44
2018-06-08T23:53:52.510Z,99547.56
2018-06-08T23:56:21.472Z,99544.20
2018-06-08T23:58:50.477Z,99548.52
